首页
METAR-TAF:

METAR-TAF

机场 :

薩圖馬雷, 罗马尼亚

纬度: 47-48N, 经度: 022-53E, 海拔: 123米

当前天气观测

该预报发布于15分钟前的16:00 UTC
风速10节,风向西北
温度 17°C
湿度 55%
气压 1013 hPa
能见度10公里或以上
1500米以下无云,无积雨云

METAR: LRSM 231600Z 31010KT CAVOK 17/08 Q1013

时间: 19:15 (16:15 UTC)

预报

该预报发布于2小时和15分钟前的14:00 UTC
预报有效从23日的 15点(UTC)到 23日的 24点(UTC)
风速4节,风向多变
能见度10公里或以上
1500米以下无云,无积雨云
短暂存在
从 23日的 15点(UTC)到 23日的 18点(UTC)
能見度: 5000
散云层高于1500英尺
少量云层高于4000英尺, 积雨云.
小雨

TAF: LRSM 231400Z 2315/2324 VRB04KT CAVOK TEMPO 2315/2318 5000 -RA SCT015 FEW040CB

超过4000个机场的气象观测和天气预报(METAR&TAF报告)。

可查询的气象台以黄色和红色小点在地图上表示。

将鼠标移到小点上方,可查看气象台名称。

然后点击查看天气观测和预报。

如需切换地图:点击带黑十字的绿色按钮放大地图;点击带横线的绿色按钮缩小地图;或者点击绿色箭头查看邻近地区的地图。


METAR-TAF: